sensor_id;sensor_type;location;lat;lon;timestamp;pressure;altitude;pressure_sealevel;temperature;humidity
49813;BME280;35706;52.100;5.056;2023-11-19T00:00:15;100667.59;;;15.35;100.00
49813;BME280;35706;52.100;5.056;2023-11-19T00:01:15;100662.66;;;15.23;100.00
49813;BME280;35706;52.100;5.056;2023-11-19T00:02:16;100667.09;;;15.39;100.00
49813;BME280;35706;52.100;5.056;2023-11-19T00:03:16;100672.41;;;15.31;100.00
49813;BME280;35706;52.100;5.056;2023-11-19T00:04:17;100669.09;;;15.37;100.00
49813;BME280;35706;52.100;5.056;2023-11-19T00:05:18;100664.63;;;15.30;100.00
49813;BME280;35706;52.100;5.056;2023-11-19T00:06:18;100666.88;;;15.49;100.00
49813;BME280;35706;52.100;5.056;2023-11-19T00:07:19;100657.78;;;15.52;100.00
49813;BME280;35706;52.100;5.056;2023-11-19T00:08:20;100670.66;;;15.55;100.00
49813;BME280;35706;52.100;5.056;2023-11-19T00:09:20;100657.41;;;15.55;100.00
49813;BME280;35706;52.100;5.056;2023-11-19T00:10:22;100665.47;;;15.61;100.00
49813;BME280;35706;52.100;5.056;2023-11-19T00:11:22;100676.63;;;15.48;100.00
49813;BME280;35706;52.100;5.056;2023-11-19T00:12:23;100667.31;;;15.61;100.00
49813;BME280;35706;52.100;5.056;2023-11-19T00:13:24;100656.88;;;15.59;100.00
49813;BME280;35706;52.100;5.056;2023-11-19T00:14:26;100660.88;;;15.55;100.00
49813;BME280;35706;52.100;5.056;2023-11-19T00:15:26;100651.41;;;15.61;100.00
49813;BME280;35706;52.100;5.056;2023-11-19T00:16:27;100644.00;;;15.56;100.00
49813;BME280;35706;52.100;5.056;2023-11-19T00:17:28;100653.69;;;15.72;100.00
49813;BME280;35706;52.100;5.056;2023-11-19T00:18:28;100661.31;;;15.67;100.00
49813;BME280;35706;52.100;5.056;2023-11-19T00:19:28;100636.47;;;15.68;100.00
49813;BME280;35706;52.100;5.056;2023-11-19T00:20:29;100642.81;;;15.59;100.00
49813;BME280;35706;52.100;5.056;2023-11-19T00:21:29;100644.94;;;15.72;100.00
49813;BME280;35706;52.100;5.056;2023-11-19T00:22:29;100651.91;;;15.64;100.00
49813;BME280;35706;52.100;5.056;2023-11-19T00:23:30;100646.41;;;15.66;100.00
49813;BME280;35706;52.100;5.056;2023-11-19T00:24:30;100664.63;;;15.69;100.00
49813;BME280;35706;52.100;5.056;2023-11-19T00:25:30;100661.97;;;15.69;100.00
49813;BME280;35706;52.100;5.056;2023-11-19T00:26:32;100670.22;;;15.82;100.00
49813;BME280;35706;52.100;5.056;2023-11-19T00:27:32;100670.44;;;15.73;100.00
49813;BME280;35706;52.100;5.056;2023-11-19T00:28:33;100669.72;;;15.79;100.00
49813;BME280;35706;52.100;5.056;2023-11-19T00:29:34;100663.00;;;15.60;100.00
49813;BME280;35706;52.100;5.056;2023-11-19T00:30:34;100664.16;;;15.65;100.00
49813;BME280;35706;52.100;5.056;2023-11-19T00:31:34;100655.28;;;15.50;100.00
49813;BME280;35706;52.100;5.056;2023-11-19T00:32:35;100657.28;;;15.48;100.00
49813;BME280;35706;52.100;5.056;2023-11-19T00:33:38;100663.06;;;15.52;100.00
49813;BME280;35706;52.100;5.056;2023-11-19T00:34:43;100660.03;;;15.63;100.00
49813;BME280;35706;52.100;5.056;2023-11-19T00:35:43;100652.47;;;15.52;100.00
49813;BME280;35706;52.100;5.056;2023-11-19T00:36:43;100650.56;;;15.68;100.00
49813;BME280;35706;52.100;5.056;2023-11-19T00:37:45;100659.50;;;15.67;100.00
49813;BME280;35706;52.100;5.056;2023-11-19T00:38:45;100644.72;;;15.42;100.00
49813;BME280;35706;52.100;5.056;2023-11-19T00:39:46;100643.59;;;15.36;100.00
49813;BME280;35706;52.100;5.056;2023-11-19T00:40:46;100636.66;;;15.35;100.00
49813;BME280;35706;52.100;5.056;2023-11-19T00:41:46;100637.91;;;15.47;100.00
49813;BME280;35706;52.100;5.056;2023-11-19T00:42:47;100637.22;;;15.54;100.00
49813;BME280;35706;52.100;5.056;2023-11-19T00:43:47;100647.88;;;15.45;100.00
49813;BME280;35706;52.100;5.056;2023-11-19T00:44:50;100639.81;;;15.62;100.00
49813;BME280;35706;52.100;5.056;2023-11-19T00:45:50;100637.59;;;15.42;100.00
49813;BME280;35706;52.100;5.056;2023-11-19T00:46:51;100632.63;;;15.47;100.00
49813;BME280;35706;52.100;5.056;2023-11-19T00:47:51;100626.63;;;15.54;100.00
49813;BME280;35706;52.100;5.056;2023-11-19T00:48:51;100630.78;;;15.48;100.00
49813;BME280;35706;52.100;5.056;2023-11-19T00:49:52;100625.63;;;15.55;100.00
49813;BME280;35706;52.100;5.056;2023-11-19T00:50:52;100626.97;;;15.51;100.00
49813;BME280;35706;52.100;5.056;2023-11-19T00:51:52;100652.84;;;15.40;100.00
49813;BME280;35706;52.100;5.056;2023-11-19T00:52:54;100628.47;;;15.45;100.00
49813;BME280;35706;52.100;5.056;2023-11-19T00:53:54;100630.53;;;15.35;100.00
49813;BME280;35706;52.100;5.056;2023-11-19T00:54:55;100641.72;;;15.45;100.00
49813;BME280;35706;52.100;5.056;2023-11-19T00:55:57;100631.66;;;15.40;100.00
49813;BME280;35706;52.100;5.056;2023-11-19T00:56:57;100634.97;;;15.34;100.00
49813;BME280;35706;52.100;5.056;2023-11-19T00:57:57;100637.06;;;15.47;100.00
49813;BME280;35706;52.100;5.056;2023-11-19T00:58:58;100636.25;;;15.46;100.00
49813;BME280;35706;52.100;5.056;2023-11-19T01:00:00;100634.50;;;15.62;100.00
49813;BME280;35706;52.100;5.056;2023-11-19T01:01:00;100650.97;;;15.49;100.00
49813;BME280;35706;52.100;5.056;2023-11-19T01:02:01;100636.94;;;15.40;100.00
49813;BME280;35706;52.100;5.056;2023-11-19T01:03:03;100646.53;;;15.50;100.00
49813;BME280;35706;52.100;5.056;2023-11-19T01:04:03;100633.56;;;15.55;100.00
49813;BME280;35706;52.100;5.056;2023-11-19T01:05:04;100637.41;;;15.52;100.00
49813;BME280;35706;52.100;5.056;2023-11-19T01:06:05;100633.94;;;15.52;100.00
49813;BME280;35706;52.100;5.056;2023-11-19T01:07:05;100632.13;;;15.44;100.00
49813;BME280;35706;52.100;5.056;2023-11-19T01:08:06;100635.66;;;15.28;100.00
49813;BME280;35706;52.100;5.056;2023-11-19T01:09:06;100630.00;;;15.39;100.00
49813;BME280;35706;52.100;5.056;2023-11-19T01:10:09;100631.13;;;15.45;100.00
49813;BME280;35706;52.100;5.056;2023-11-19T01:11:19;100636.63;;;15.43;100.00
49813;BME280;35706;52.100;5.056;2023-11-19T01:12:22;100640.78;;;15.38;100.00
49813;BME280;35706;52.100;5.056;2023-11-19T01:13:23;100619.38;;;15.47;100.00
49813;BME280;35706;52.100;5.056;2023-11-19T01:14:24;100621.25;;;15.39;100.00
49813;BME280;35706;52.100;5.056;2023-11-19T01:15:25;100617.94;;;15.37;100.00
49813;BME280;35706;52.100;5.056;2023-11-19T01:16:26;100615.06;;;15.46;100.00
49813;BME280;35706;52.100;5.056;2023-11-19T01:17:27;100606.22;;;15.31;100.00
49813;BME280;35706;52.100;5.056;2023-11-19T01:18:27;100602.19;;;15.43;100.00
49813;BME280;35706;52.100;5.056;2023-11-19T01:19:27;100608.81;;;15.39;100.00
49813;BME280;35706;52.100;5.056;2023-11-19T01:20:28;100600.72;;;15.41;100.00
49813;BME280;35706;52.100;5.056;2023-11-19T01:21:28;100595.53;;;15.47;100.00
49813;BME280;35706;52.100;5.056;2023-11-19T01:22:29;100601.25;;;15.28;100.00
49813;BME280;35706;52.100;5.056;2023-11-19T01:23:29;100591.72;;;15.50;100.00
49813;BME280;35706;52.100;5.056;2023-11-19T01:24:29;100586.41;;;15.50;100.00
49813;BME280;35706;52.100;5.056;2023-11-19T01:25:31;100603.97;;;15.43;100.00
49813;BME280;35706;52.100;5.056;2023-11-19T01:26:31;100590.28;;;15.39;100.00
49813;BME280;35706;52.100;5.056;2023-11-19T01:27:32;100598.97;;;15.25;100.00
49813;BME280;35706;52.100;5.056;2023-11-19T01:28:34;100611.03;;;15.27;100.00
49813;BME280;35706;52.100;5.056;2023-11-19T01:29:35;100600.28;;;15.21;100.00
49813;BME280;35706;52.100;5.056;2023-11-19T01:30:35;100608.16;;;15.37;100.00
49813;BME280;35706;52.100;5.056;2023-11-19T01:31:35;100606.09;;;15.24;100.00
49813;BME280;35706;52.100;5.056;2023-11-19T01:32:37;100605.72;;;15.27;100.00
49813;BME280;35706;52.100;5.056;2023-11-19T01:33:37;100617.78;;;15.30;100.00
49813;BME280;35706;52.100;5.056;2023-11-19T01:34:40;100612.41;;;15.46;100.00
49813;BME280;35706;52.100;5.056;2023-11-19T01:35:41;100612.00;;;15.35;100.00
49813;BME280;35706;52.100;5.056;2023-11-19T01:36:41;100606.25;;;15.23;100.00
49813;BME280;35706;52.100;5.056;2023-11-19T01:37:41;100602.63;;;15.24;100.00
49813;BME280;35706;52.100;5.056;2023-11-19T01:38:42;100604.75;;;15.29;100.00
49813;BME280;35706;52.100;5.056;2023-11-19T01:39:45;100600.75;;;15.33;100.00
49813;BME280;35706;52.100;5.056;2023-11-19T01:40:45;100604.44;;;15.15;100.00
49813;BME280;35706;52.100;5.056;2023-11-19T01:41:45;100607.44;;;15.12;100.00
49813;BME280;35706;52.100;5.056;2023-11-19T01:42:46;100603.97;;;15.20;100.00
49813;BME280;35706;52.100;5.056;2023-11-19T01:43:46;100603.88;;;15.28;100.00
49813;BME280;35706;52.100;5.056;2023-11-19T01:45:00;100604.47;;;15.46;100.00
49813;BME280;35706;52.100;5.056;2023-11-19T01:46:01;100612.97;;;15.34;100.00
49813;BME280;35706;52.100;5.056;2023-11-19T01:47:03;100614.81;;;15.33;100.00
49813;BME280;35706;52.100;5.056;2023-11-19T01:48:04;100614.84;;;15.25;100.00
49813;BME280;35706;52.100;5.056;2023-11-19T01:49:05;100602.94;;;15.21;100.00
49813;BME280;35706;52.100;5.056;2023-11-19T01:50:06;100606.13;;;15.16;100.00
49813;BME280;35706;52.100;5.056;2023-11-19T01:51:08;100603.47;;;15.16;100.00
49813;BME280;35706;52.100;5.056;2023-11-19T01:52:09;100607.31;;;15.05;100.00
49813;BME280;35706;52.100;5.056;2023-11-19T01:53:10;100615.13;;;14.99;100.00
49813;BME280;35706;52.100;5.056;2023-11-19T01:54:11;100619.66;;;15.21;100.00
49813;BME280;35706;52.100;5.056;2023-11-19T01:55:12;100610.25;;;15.11;100.00
49813;BME280;35706;52.100;5.056;2023-11-19T01:56:14;100609.81;;;14.99;100.00
49813;BME280;35706;52.100;5.056;2023-11-19T01:57:15;100612.13;;;15.02;100.00
49813;BME280;35706;52.100;5.056;2023-11-19T01:58:16;100618.34;;;15.17;100.00
49813;BME280;35706;52.100;5.056;2023-11-19T01:59:17;100614.75;;;15.02;100.00
49813;BME280;35706;52.100;5.056;2023-11-19T02:00:18;100619.06;;;15.03;100.00
49813;BME280;35706;52.100;5.056;2023-11-19T02:01:19;100608.97;;;14.98;100.00
49813;BME280;35706;52.100;5.056;2023-11-19T02:02:20;100615.25;;;15.05;100.00
49813;BME280;35706;52.100;5.056;2023-11-19T02:03:21;100604.19;;;15.02;100.00
49813;BME280;35706;52.100;5.056;2023-11-19T02:04:21;100607.84;;;14.93;100.00
49813;BME280;35706;52.100;5.056;2023-11-19T02:05:22;100608.94;;;15.06;100.00
49813;BME280;35706;52.100;5.056;2023-11-19T02:06:23;100613.25;;;15.07;100.00
49813;BME280;35706;52.100;5.056;2023-11-19T02:07:25;100604.66;;;15.05;100.00
49813;BME280;35706;52.100;5.056;2023-11-19T02:08:25;100600.38;;;14.96;100.00
49813;BME280;35706;52.100;5.056;2023-11-19T02:09:26;100602.09;;;14.81;100.00
49813;BME280;35706;52.100;5.056;2023-11-19T02:10:27;100597.78;;;14.88;100.00
49813;BME280;35706;52.100;5.056;2023-11-19T02:11:29;100600.72;;;14.93;100.00
49813;BME280;35706;52.100;5.056;2023-11-19T02:12:29;100599.97;;;14.76;100.00
49813;BME280;35706;52.100;5.056;2023-11-19T02:13:33;100593.81;;;14.92;100.00
49813;BME280;35706;52.100;5.056;2023-11-19T02:14:37;100599.03;;;15.00;100.00
49813;BME280;35706;52.100;5.056;2023-11-19T02:15:38;100598.78;;;14.87;100.00
49813;BME280;35706;52.100;5.056;2023-11-19T02:16:38;100619.63;;;14.82;100.00
49813;BME280;35706;52.100;5.056;2023-11-19T02:17:39;100602.59;;;14.84;100.00
49813;BME280;35706;52.100;5.056;2023-11-19T02:18:39;100615.16;;;14.82;100.00
49813;BME280;35706;52.100;5.056;2023-11-19T02:19:40;100616.31;;;14.88;100.00
49813;BME280;35706;52.100;5.056;2023-11-19T02:20:40;100623.47;;;14.71;100.00
49813;BME280;35706;52.100;5.056;2023-11-19T02:21:40;100626.06;;;14.79;100.00
49813;BME280;35706;52.100;5.056;2023-11-19T02:22:41;100632.88;;;14.82;100.00
49813;BME280;35706;52.100;5.056;2023-11-19T02:23:42;100631.53;;;14.86;100.00
49813;BME280;35706;52.100;5.056;2023-11-19T02:24:43;100642.59;;;14.81;100.00
49813;BME280;35706;52.100;5.056;2023-11-19T02:25:50;100632.31;;;15.03;100.00
49813;BME280;35706;52.100;5.056;2023-11-19T02:27:02;100628.16;;;15.00;100.00
49813;BME280;35706;52.100;5.056;2023-11-19T02:28:08;100624.59;;;14.69;100.00
49813;BME280;35706;52.100;5.056;2023-11-19T02:29:11;100628.91;;;14.70;100.00
49813;BME280;35706;52.100;5.056;2023-11-19T02:30:12;100635.53;;;14.74;100.00
49813;BME280;35706;52.100;5.056;2023-11-19T02:31:14;100621.78;;;14.78;100.00
49813;BME280;35706;52.100;5.056;2023-11-19T02:32:15;100623.28;;;14.73;100.00
49813;BME280;35706;52.100;5.056;2023-11-19T02:33:15;100634.38;;;14.68;100.00
49813;BME280;35706;52.100;5.056;2023-11-19T02:34:16;100623.28;;;14.73;100.00
49813;BME280;35706;52.100;5.056;2023-11-19T02:35:16;100619.16;;;14.62;100.00
49813;BME280;35706;52.100;5.056;2023-11-19T02:36:16;100624.13;;;14.73;100.00
49813;BME280;35706;52.100;5.056;2023-11-19T02:37:17;100623.78;;;14.52;100.00
49813;BME280;35706;52.100;5.056;2023-11-19T02:38:19;100622.13;;;14.51;100.00
49813;BME280;35706;52.100;5.056;2023-11-19T02:39:21;100622.16;;;14.59;100.00
49813;BME280;35706;52.100;5.056;2023-11-19T02:40:22;100627.59;;;14.57;100.00
49813;BME280;35706;52.100;5.056;2023-11-19T02:41:24;100621.97;;;14.60;100.00
49813;BME280;35706;52.100;5.056;2023-11-19T02:42:24;100611.41;;;14.44;100.00
49813;BME280;35706;52.100;5.056;2023-11-19T02:43:25;100624.31;;;14.55;100.00
49813;BME280;35706;52.100;5.056;2023-11-19T02:44:25;100622.31;;;14.57;100.00
49813;BME280;35706;52.100;5.056;2023-11-19T02:45:28;100622.44;;;14.48;100.00
49813;BME280;35706;52.100;5.056;2023-11-19T02:46:31;100608.25;;;14.40;100.00
49813;BME280;35706;52.100;5.056;2023-11-19T02:47:35;100608.44;;;14.55;100.00
49813;BME280;35706;52.100;5.056;2023-11-19T02:48:36;100612.38;;;14.43;100.00
49813;BME280;35706;52.100;5.056;2023-11-19T02:49:36;100608.25;;;14.40;100.00
49813;BME280;35706;52.100;5.056;2023-11-19T02:50:37;100612.56;;;14.41;100.00
49813;BME280;35706;52.100;5.056;2023-11-19T02:51:37;100606.09;;;14.44;100.00
49813;BME280;35706;52.100;5.056;2023-11-19T02:52:38;100619.00;;;14.39;100.00
49813;BME280;35706;52.100;5.056;2023-11-19T02:53:39;100650.56;;;14.49;100.00
49813;BME280;35706;52.100;5.056;2023-11-19T02:54:40;100619.34;;;14.44;100.00
49813;BME280;35706;52.100;5.056;2023-11-19T02:55:41;100617.66;;;14.51;100.00
49813;BME280;35706;52.100;5.056;2023-11-19T02:56:48;100617.66;;;14.51;100.00
49813;BME280;35706;52.100;5.056;2023-11-19T02:57:55;100619.13;;;14.54;100.00
49813;BME280;35706;52.100;5.056;2023-11-19T02:58:56;100606.91;;;14.53;100.00
49813;BME280;35706;52.100;5.056;2023-11-19T02:59:56;100604.13;;;14.46;100.00
49813;BME280;35706;52.100;5.056;2023-11-19T03:00:57;100597.97;;;14.45;100.00
49813;BME280;35706;52.100;5.056;2023-11-19T03:01:58;100607.75;;;14.53;100.00
49813;BME280;35706;52.100;5.056;2023-11-19T03:02:59;100605.59;;;14.49;100.00
49813;BME280;35706;52.100;5.056;2023-11-19T03:04:05;100611.41;;;14.44;100.00
49813;BME280;35706;52.100;5.056;2023-11-19T03:05:06;100600.81;;;14.44;100.00
49813;BME280;35706;52.100;5.056;2023-11-19T03:06:07;100621.34;;;14.58;100.00
49813;BME280;35706;52.100;5.056;2023-11-19T03:07:09;100609.56;;;14.53;100.00
49813;BME280;35706;52.100;5.056;2023-11-19T03:08:09;100610.06;;;14.48;100.00
49813;BME280;35706;52.100;5.056;2023-11-19T03:09:10;100606.91;;;14.53;100.00
49813;BME280;35706;52.100;5.056;2023-11-19T03:10:10;100624.31;;;14.55;100.00
49813;BME280;35706;52.100;5.056;2023-11-19T03:11:14;100619.81;;;14.48;100.00
49813;BME280;35706;52.100;5.056;2023-11-19T03:12:15;100622.13;;;14.42;100.00
49813;BME280;35706;52.100;5.056;2023-11-19T03:13:15;100621.97;;;14.44;100.00
49813;BME280;35706;52.100;5.056;2023-11-19T03:14:15;100611.06;;;14.39;100.00
49813;BME280;35706;52.100;5.056;2023-11-19T03:15:17;100612.22;;;14.36;100.00
49813;BME280;35706;52.100;5.056;2023-11-19T03:16:17;100639.16;;;14.40;100.00
49813;BME280;35706;52.100;5.056;2023-11-19T03:17:17;100616.03;;;14.42;100.00
49813;BME280;35706;52.100;5.056;2023-11-19T03:18:19;100616.84;;;14.51;100.00
49813;BME280;35706;52.100;5.056;2023-11-19T03:19:19;100616.53;;;14.37;100.00
49813;BME280;35706;52.100;5.056;2023-11-19T03:20:20;100611.41;;;14.44;100.00
49813;BME280;35706;52.100;5.056;2023-11-19T03:21:28;100618.34;;;14.61;100.00
49813;BME280;35706;52.100;5.056;2023-11-19T03:22:28;100617.19;;;14.39;100.00
49813;BME280;35706;52.100;5.056;2023-11-19T03:23:30;100612.41;;;14.27;100.00
49813;BME280;35706;52.100;5.056;2023-11-19T03:24:31;100603.47;;;14.36;100.00
49813;BME280;35706;52.100;5.056;2023-11-19T03:25:32;100602.00;;;14.41;100.00
49813;BME280;35706;52.100;5.056;2023-11-19T03:26:36;100616.50;;;14.54;100.00
49813;BME280;35706;52.100;5.056;2023-11-19T03:27:37;100614.38;;;14.57;100.00
49813;BME280;35706;52.100;5.056;2023-11-19T03:28:44;100602.81;;;14.50;100.00
49813;BME280;35706;52.100;5.056;2023-11-19T03:29:44;100601.28;;;14.48;100.00
49813;BME280;35706;52.100;5.056;2023-11-19T03:30:45;100605.97;;;14.37;100.00
49813;BME280;35706;52.100;5.056;2023-11-19T03:31:45;100598.19;;;14.36;100.00
49813;BME280;35706;52.100;5.056;2023-11-19T03:32:46;100595.38;;;14.37;100.00
49813;BME280;35706;52.100;5.056;2023-11-19T03:33:46;100590.09;;;14.29;100.00
49813;BME280;35706;52.100;5.056;2023-11-19T03:34:47;100589.94;;;14.14;100.00
49813;BME280;35706;52.100;5.056;2023-11-19T03:35:47;100581.34;;;14.04;100.00
49813;BME280;35706;52.100;5.056;2023-11-19T03:36:47;100587.13;;;13.99;100.00
49813;BME280;35706;52.100;5.056;2023-11-19T03:37:49;100585.78;;;14.20;100.00
49813;BME280;35706;52.100;5.056;2023-11-19T03:38:49;100571.59;;;14.13;100.00
49813;BME280;35706;52.100;5.056;2023-11-19T03:39:50;100576.38;;;14.09;100.00
49813;BME280;35706;52.100;5.056;2023-11-19T03:40:51;100574.25;;;14.13;100.00
49813;BME280;35706;52.100;5.056;2023-11-19T03:41:51;100579.69;;;14.11;100.00
49813;BME280;35706;52.100;5.056;2023-11-19T03:42:52;100582.81;;;14.07;100.00
49813;BME280;35706;52.100;5.056;2023-11-19T03:43:53;100591.91;;;14.20;100.00
49813;BME280;35706;52.100;5.056;2023-11-19T03:44:53;100597.88;;;14.22;100.00
49813;BME280;35706;52.100;5.056;2023-11-19T03:45:54;100594.88;;;14.17;100.00
49813;BME280;35706;52.100;5.056;2023-11-19T03:46:54;100597.03;;;14.05;100.00
49813;BME280;35706;52.100;5.056;2023-11-19T03:47:55;100604.63;;;14.17;100.00
49813;BME280;35706;52.100;5.056;2023-11-19T03:48:55;100596.53;;;14.10;100.00
49813;BME280;35706;52.100;5.056;2023-11-19T03:49:55;100627.75;;;14.23;100.00
49813;BME280;35706;52.100;5.056;2023-11-19T03:50:56;100607.25;;;13.92;100.00
49813;BME280;35706;52.100;5.056;2023-11-19T03:51:56;100613.06;;;14.04;100.00
49813;BME280;35706;52.100;5.056;2023-11-19T03:52:57;100611.91;;;14.07;100.00
49813;BME280;35706;52.100;5.056;2023-11-19T03:53:57;100618.19;;;14.05;100.00
49813;BME280;35706;52.100;5.056;2023-11-19T03:54:57;100610.72;;;14.01;100.00
49813;BME280;35706;52.100;5.056;2023-11-19T03:55:58;100601.47;;;14.13;100.00
49813;BME280;35706;52.100;5.056;2023-11-19T03:56:58;100616.03;;;14.09;100.00
49813;BME280;35706;52.100;5.056;2023-11-19T03:58:00;100613.38;;;13.93;100.00
49813;BME280;35706;52.100;5.056;2023-11-19T03:59:00;100607.59;;;13.97;100.00
49813;BME280;35706;52.100;5.056;2023-11-19T04:00:01;100606.44;;;14.08;100.00
49813;BME280;35706;52.100;5.056;2023-11-19T04:01:12;100609.41;;;14.05;100.00
49813;BME280;35706;52.100;5.056;2023-11-19T04:02:16;100614.50;;;13.90;100.00
49813;BME280;35706;52.100;5.056;2023-11-19T04:03:16;100603.13;;;13.98;100.00
49813;BME280;35706;52.100;5.056;2023-11-19T04:04:17;100604.44;;;13.77;100.00
49813;BME280;35706;52.100;5.056;2023-11-19T04:05:17;100609.56;;;13.87;100.00
49813;BME280;35706;52.100;5.056;2023-11-19T04:06:19;100612.88;;;13.97;100.00
49813;BME280;35706;52.100;5.056;2023-11-19T04:07:19;100613.19;;;13.94;100.00
49813;BME280;35706;52.100;5.056;2023-11-19T04:08:20;100614.69;;;13.97;100.00
49813;BME280;35706;52.100;5.056;2023-11-19T04:09:20;100619.00;;;14.06;100.00
49813;BME280;35706;52.100;5.056;2023-11-19T04:10:21;100630.03;;;13.85;100.00
49813;BME280;35706;52.100;5.056;2023-11-19T04:11:22;100615.84;;;13.94;100.00
49813;BME280;35706;52.100;5.056;2023-11-19T04:12:23;100626.59;;;13.93;100.00
49813;BME280;35706;52.100;5.056;2023-11-19T04:13:23;100617.16;;;13.90;100.00
49813;BME280;35706;52.100;5.056;2023-11-19T04:14:24;100638.66;;;13.95;100.00
49813;BME280;35706;52.100;5.056;2023-11-19T04:15:25;100629.25;;;13.93;100.00
49813;BME280;35706;52.100;5.056;2023-11-19T04:16:26;100632.53;;;14.03;100.00
49813;BME280;35706;52.100;5.056;2023-11-19T04:17:28;100631.53;;;13.88;100.00
49813;BME280;35706;52.100;5.056;2023-11-19T04:18:28;100630.56;;;13.89;100.00
49813;BME280;35706;52.100;5.056;2023-11-19T04:19:29;100636.16;;;13.94;100.00
49813;BME280;35706;52.100;5.056;2023-11-19T04:20:29;100639.63;;;14.02;100.00
49813;BME280;35706;52.100;5.056;2023-11-19T04:21:29;100636.03;;;14.03;100.00
49813;BME280;35706;52.100;5.056;2023-11-19T04:22:29;100636.50;;;13.91;100.00
49813;BME280;35706;52.100;5.056;2023-11-19T04:23:30;100643.44;;;13.92;100.00
49813;BME280;35706;52.100;5.056;2023-11-19T04:24:31;100643.28;;;13.93;100.00
49813;BME280;35706;52.100;5.056;2023-11-19T04:25:31;100632.50;;;13.95;100.00
49813;BME280;35706;52.100;5.056;2023-11-19T04:26:32;100635.81;;;13.97;100.00
49813;BME280;35706;52.100;5.056;2023-11-19T04:27:32;100643.28;;;14.01;100.00
49813;BME280;35706;52.100;5.056;2023-11-19T04:28:32;100634.34;;;13.94;100.00
49813;BME280;35706;52.100;5.056;2023-11-19T04:29:32;100630.06;;;13.93;100.00
49813;BME280;35706;52.100;5.056;2023-11-19T04:30:34;100633.66;;;13.76;100.00
49813;BME280;35706;52.100;5.056;2023-11-19T04:31:35;100632.16;;;13.81;100.00
49813;BME280;35706;52.100;5.056;2023-11-19T04:32:35;100634.84;;;13.90;100.00
49813;BME280;35706;52.100;5.056;2023-11-19T04:33:36;100635.50;;;13.92;100.00
49813;BME280;35706;52.100;5.056;2023-11-19T04:34:36;100654.31;;;13.97;100.00
49813;BME280;35706;52.100;5.056;2023-11-19T04:35:37;100623.63;;;13.96;100.00
49813;BME280;35706;52.100;5.056;2023-11-19T04:36:37;100643.41;;;13.83;100.00
49813;BME280;35706;52.100;5.056;2023-11-19T04:37:39;100644.53;;;13.73;100.00
49813;BME280;35706;52.100;5.056;2023-11-19T04:38:39;100631.38;;;13.97;100.00
49813;BME280;35706;52.100;5.056;2023-11-19T04:39:40;100634.84;;;13.90;100.00
49813;BME280;35706;52.100;5.056;2023-11-19T04:40:40;100634.19;;;14.04;100.00
49813;BME280;35706;52.100;5.056;2023-11-19T04:41:48;100632.22;;;14.06;100.00
49813;BME280;35706;52.100;5.056;2023-11-19T04:42:49;100638.00;;;14.01;100.00
49813;BME280;35706;52.100;5.056;2023-11-19T04:43:49;100629.56;;;13.98;100.00
49813;BME280;35706;52.100;5.056;2023-11-19T04:44:50;100630.41;;;14.07;100.00
49813;BME280;35706;52.100;5.056;2023-11-19T04:45:50;100632.84;;;13.92;100.00
49813;BME280;35706;52.100;5.056;2023-11-19T04:46:50;100635.16;;;14.03;100.00
49813;BME280;35706;52.100;5.056;2023-11-19T04:47:51;100633.38;;;14.03;100.00
49813;BME280;35706;52.100;5.056;2023-11-19T04:48:51;100636.03;;;14.03;100.00
49813;BME280;35706;52.100;5.056;2023-11-19T04:49:51;100630.03;;;13.77;100.00
49813;BME280;35706;52.100;5.056;2023-11-19T04:50:52;100628.38;;;13.84;100.00
49813;BME280;35706;52.100;5.056;2023-11-19T04:51:52;100620.78;;;13.81;100.00
49813;BME280;35706;52.100;5.056;2023-11-19T04:52:53;100625.06;;;13.82;100.00
49813;BME280;35706;52.100;5.056;2023-11-19T04:53:54;100610.22;;;13.89;100.00
49813;BME280;35706;52.100;5.056;2023-11-19T04:54:54;100618.00;;;13.91;100.00
49813;BME280;35706;52.100;5.056;2023-11-19T04:55:54;100614.88;;;13.95;100.00
49813;BME280;35706;52.100;5.056;2023-11-19T04:56:55;100615.38;;;13.91;100.00
49813;BME280;35706;52.100;5.056;2023-11-19T04:57:55;100624.09;;;13.91;100.00
49813;BME280;35706;52.100;5.056;2023-11-19T04:58:55;100612.38;;;13.94;100.00
49813;BME280;35706;52.100;5.056;2023-11-19T04:59:55;100625.44;;;13.95;100.00
49813;BME280;35706;52.100;5.056;2023-11-19T05:00:56;100616.19;;;13.99;100.00
49813;BME280;35706;52.100;5.056;2023-11-19T05:01:56;100622.81;;;14.03;99.89
49813;BME280;35706;52.100;5.056;2023-11-19T05:02:58;100626.41;;;13.94;100.00
49813;BME280;35706;52.100;5.056;2023-11-19T05:03:59;100630.03;;;13.85;100.00
49813;BME280;35706;52.100;5.056;2023-11-19T05:04:59;100618.47;;;13.94;100.00
49813;BME280;35706;52.100;5.056;2023-11-19T05:06:02;100625.44;;;14.03;99.81
49813;BME280;35706;52.100;5.056;2023-11-19T05:07:03;100625.91;;;13.82;100.00
49813;BME280;35706;52.100;5.056;2023-11-19T05:08:03;100627.91;;;13.89;99.90
49813;BME280;35706;52.100;5.056;2023-11-19T05:09:05;100629.25;;;13.93;99.89
49813;BME280;35706;52.100;5.056;2023-11-19T05:10:07;100636.00;;;13.87;100.00
49813;BME280;35706;52.100;5.056;2023-11-19T05:11:08;100633.34;;;13.79;99.85
49813;BME280;35706;52.100;5.056;2023-11-19T05:12:12;100634.66;;;13.83;99.82
49813;BME280;35706;52.100;5.056;2023-11-19T05:13:12;100637.63;;;13.88;99.38
49813;BME280;35706;52.100;5.056;2023-11-19T05:14:12;100625.94;;;13.91;99.06
49813;BME280;35706;52.100;5.056;2023-11-19T05:15:13;100639.44;;;13.88;98.76